createdAt,value
2024-05-09T00:01:25.166Z,88.85
2024-05-09T00:03:26.782Z,88.16
2024-05-09T00:05:28.453Z,90.11
2024-05-09T00:07:30.178Z,89.26
2024-05-09T00:09:31.765Z,89.21
2024-05-09T00:11:33.384Z,88.21
2024-05-09T00:13:35.000Z,88.29
2024-05-09T00:15:37.163Z,90.32
2024-05-09T00:17:39.228Z,89.49
2024-05-09T00:19:41.010Z,89.66
2024-05-09T00:21:45.604Z,89.40
2024-05-09T00:23:47.446Z,89.53
2024-05-09T00:25:49.029Z,88.28
2024-05-09T00:27:50.575Z,87.96
2024-05-09T00:29:52.189Z,89.30
2024-05-09T00:31:54.461Z,89.29
2024-05-09T00:33:56.385Z,88.29
2024-05-09T00:35:58.133Z,89.66
2024-05-09T00:38:00.120Z,89.58
2024-05-09T00:40:01.743Z,91.09
2024-05-09T00:42:03.714Z,89.33
2024-05-09T00:44:05.470Z,88.36
2024-05-09T00:46:09.961Z,89.22
2024-05-09T00:48:15.189Z,90.69
2024-05-09T00:50:25.876Z,91.63
2024-05-09T00:52:35.710Z,90.37
2024-05-09T00:54:37.311Z,92.44
2024-05-09T00:56:40.922Z,91.62
2024-05-09T00:58:43.350Z,91.25
2024-05-09T01:00:45.160Z,90.09
2024-05-09T01:02:47.632Z,89.72
2024-05-09T01:04:50.179Z,91.11
2024-05-09T01:06:51.876Z,89.29
2024-05-09T01:08:53.540Z,89.34
2024-05-09T01:10:55.442Z,90.08
2024-05-09T01:12:57.132Z,88.70
2024-05-09T01:14:58.731Z,89.18
2024-05-09T01:17:00.503Z,90.05
2024-05-09T01:19:04.265Z,89.99
2024-05-09T01:21:08.297Z,89.16
2024-05-09T01:23:10.547Z,90.07
2024-05-09T01:25:12.238Z,90.95
2024-05-09T01:27:13.778Z,88.96
2024-05-09T01:29:15.545Z,89.22
2024-05-09T01:31:17.223Z,90.10
2024-05-09T01:33:18.914Z,91.17
2024-05-09T01:35:23.526Z,90.11
2024-05-09T01:37:25.236Z,90.15
2024-05-09T01:39:26.816Z,90.44
2024-05-09T01:41:28.545Z,91.65
2024-05-09T01:43:30.506Z,89.99
2024-05-09T01:45:32.104Z,90.64
2024-05-09T01:47:33.796Z,91.79
2024-05-09T01:49:37.284Z,89.78
2024-05-09T01:51:38.995Z,92.28
2024-05-09T01:53:40.707Z,90.60
2024-05-09T01:55:43.280Z,91.94
2024-05-09T01:57:45.086Z,91.52
2024-05-09T01:59:46.614Z,90.88
2024-05-09T02:01:56.617Z,90.46
2024-05-09T02:03:59.554Z,90.55
2024-05-09T02:06:01.419Z,91.11
2024-05-09T02:08:03.432Z,91.01
2024-05-09T02:10:13.589Z,91.37
2024-05-09T02:12:18.279Z,90.83
2024-05-09T02:14:20.423Z,90.96
2024-05-09T02:16:21.963Z,90.52
2024-05-09T02:18:23.829Z,92.19
2024-05-09T02:20:33.391Z,92.83
2024-05-09T02:22:37.970Z,91.38
2024-05-09T02:24:39.527Z,90.83
2024-05-09T02:26:41.158Z,92.03
2024-05-09T02:28:42.834Z,90.73
2024-05-09T02:30:44.490Z,91.27
2024-05-09T02:32:46.315Z,91.82
2024-05-09T02:34:48.137Z,91.55
2024-05-09T02:36:49.907Z,90.56
2024-05-09T02:38:51.543Z,91.11
2024-05-09T02:40:53.131Z,91.37
2024-05-09T02:42:54.782Z,91.54
2024-05-09T02:44:56.472Z,91.56
2024-05-09T02:46:58.075Z,92.14
2024-05-09T02:48:59.745Z,91.28
2024-05-09T02:51:01.987Z,91.45
2024-05-09T02:53:03.806Z,90.99
2024-05-09T02:55:05.886Z,91.06
2024-05-09T02:57:07.872Z,90.89
2024-05-09T02:59:09.491Z,90.89
2024-05-09T03:01:11.213Z,91.21
2024-05-09T03:03:14.926Z,90.26
2024-05-09T03:05:17.400Z,90.56
2024-05-09T03:07:20.372Z,90.50
2024-05-09T03:09:23.779Z,90.22
2024-05-09T03:11:26.017Z,90.30
2024-05-09T03:13:27.650Z,90.33
2024-05-09T03:15:32.491Z,90.87
2024-05-09T03:17:34.508Z,91.53
2024-05-09T03:19:36.680Z,92.06
2024-05-09T03:21:40.099Z,91.80
2024-05-09T03:23:42.283Z,90.80
2024-05-09T03:25:43.908Z,90.91
2024-05-09T03:27:45.522Z,90.03
2024-05-09T03:29:47.091Z,91.04
2024-05-09T03:31:48.956Z,91.47
2024-05-09T03:33:50.777Z,91.70
2024-05-09T03:35:52.447Z,91.52
2024-05-09T03:37:53.976Z,91.42
2024-05-09T03:39:55.944Z,92.06
2024-05-09T03:41:57.604Z,91.47
2024-05-09T03:43:59.167Z,92.60
2024-05-09T03:46:00.923Z,91.76
2024-05-09T03:48:02.701Z,90.45
2024-05-09T03:50:05.834Z,90.99
2024-05-09T03:52:09.298Z,91.06
2024-05-09T03:54:10.836Z,91.31
2024-05-09T03:56:12.605Z,90.64
2024-05-09T03:58:14.549Z,91.17
2024-05-09T04:00:22.162Z,90.45
2024-05-09T04:02:28.385Z,91.30
2024-05-09T04:04:30.252Z,91.29
2024-05-09T04:06:32.319Z,91.42
2024-05-09T04:08:34.069Z,90.69
2024-05-09T04:10:35.922Z,91.18
2024-05-09T04:12:38.000Z,91.34
2024-05-09T04:14:39.783Z,91.41
2024-05-09T04:16:41.355Z,90.76
2024-05-09T04:18:43.100Z,91.22
2024-05-09T04:20:45.057Z,91.46
2024-05-09T04:22:46.744Z,90.66
2024-05-09T04:24:48.585Z,90.79
2024-05-09T04:26:50.155Z,90.22
2024-05-09T04:28:51.794Z,90.13
2024-05-09T04:30:53.352Z,91.13
2024-05-09T04:32:55.092Z,91.74
2024-05-09T04:34:56.745Z,91.64
2024-05-09T04:36:58.333Z,92.53
2024-05-09T04:38:59.953Z,93.00
2024-05-09T04:41:01.818Z,92.99
2024-05-09T04:43:07.098Z,92.44
2024-05-09T04:45:09.079Z,93.45
2024-05-09T04:47:11.247Z,93.02
2024-05-09T04:49:13.322Z,93.92
2024-05-09T04:51:15.048Z,93.47
2024-05-09T04:53:17.204Z,93.70
2024-05-09T04:55:19.239Z,93.44
2024-05-09T04:57:20.860Z,93.83
2024-05-09T04:59:22.571Z,94.28
2024-05-09T05:01:24.217Z,93.41
2024-05-09T05:03:25.960Z,93.04
2024-05-09T05:05:27.718Z,93.70
2024-05-09T05:07:29.352Z,93.15
2024-05-09T05:09:31.145Z,93.55
2024-05-09T05:11:32.838Z,93.38
2024-05-09T05:13:36.732Z,91.81
2024-05-09T05:15:39.497Z,92.16
2024-05-09T05:17:41.244Z,92.30
2024-05-09T05:19:43.263Z,93.77
2024-05-09T05:21:44.847Z,93.67
2024-05-09T05:23:46.509Z,92.92
2024-05-09T05:25:53.024Z,92.30
2024-05-09T05:27:54.923Z,93.06
2024-05-09T05:29:56.509Z,94.54
2024-05-09T05:31:58.459Z,93.20
2024-05-09T05:34:00.142Z,93.34
2024-05-09T05:36:01.802Z,93.63
2024-05-09T05:38:03.975Z,93.07
2024-05-09T05:40:09.401Z,93.81
2024-05-09T05:42:13.402Z,95.46
2024-05-09T05:44:15.923Z,93.40
2024-05-09T05:46:17.814Z,94.63
2024-05-09T05:48:19.463Z,96.55
2024-05-09T05:50:27.886Z,97.04
2024-05-09T05:52:36.721Z,98.59
2024-05-09T05:54:38.273Z,98.51
2024-05-09T05:56:39.878Z,97.14
2024-05-09T05:58:44.232Z,98.84
2024-05-09T06:00:46.007Z,97.10
2024-05-09T06:02:47.667Z,98.48
2024-05-09T06:04:49.377Z,98.49
2024-05-09T06:06:51.391Z,99.53
2024-05-09T06:08:53.186Z,98.15
2024-05-09T06:10:54.906Z,98.41
2024-05-09T06:12:56.499Z,96.92
2024-05-09T06:14:58.044Z,98.87
2024-05-09T06:16:59.667Z,96.27
2024-05-09T06:19:01.299Z,96.30
2024-05-09T06:21:03.081Z,94.76
2024-05-09T06:23:09.019Z,94.63
2024-05-09T06:25:11.165Z,95.50
2024-05-09T06:27:12.744Z,94.43
2024-05-09T06:29:14.417Z,88.94
2024-05-09T06:31:16.481Z,91.42
2024-05-09T06:33:18.429Z,92.50
2024-05-09T06:35:20.142Z,91.90
2024-05-09T06:37:21.729Z,81.71
2024-05-09T06:39:24.121Z,83.53
2024-05-09T06:41:25.963Z,87.22
2024-05-09T06:43:27.537Z,87.79
2024-05-09T06:45:29.059Z,85.81
2024-05-09T06:47:30.790Z,83.54
2024-05-09T06:49:33.028Z,82.93
2024-05-09T06:51:38.272Z,84.95
2024-05-09T06:53:40.613Z,84.23
2024-05-09T06:55:42.820Z,84.37
2024-05-09T06:57:44.423Z,81.67
2024-05-09T06:59:45.923Z,82.04
2024-05-09T07:01:47.630Z,75.50
2024-05-09T07:03:49.270Z,76.67
2024-05-09T07:05:51.022Z,77.34
2024-05-09T07:07:52.642Z,74.02
2024-05-09T07:09:54.294Z,77.61
2024-05-09T07:11:56.047Z,75.65
2024-05-09T07:13:57.694Z,75.57
2024-05-09T07:15:59.966Z,74.87
2024-05-09T07:18:01.818Z,78.16
2024-05-09T07:20:06.725Z,75.99
2024-05-09T07:22:08.480Z,72.27
2024-05-09T07:24:10.144Z,75.66
2024-05-09T07:26:11.741Z,75.61
2024-05-09T07:28:15.736Z,70.71
2024-05-09T07:30:23.840Z,73.48
2024-05-09T07:32:32.425Z,73.66
2024-05-09T07:34:34.280Z,72.38
2024-05-09T07:36:35.917Z,68.21
2024-05-09T07:38:37.592Z,70.72
2024-05-09T07:40:40.857Z,71.79
2024-05-09T07:42:42.814Z,70.56
2024-05-09T07:44:44.440Z,67.27
2024-05-09T07:47:48.464Z,66.81
2024-05-09T07:53:37.882Z,62.89
2024-05-09T07:55:38.183Z,63.63
2024-05-09T07:57:39.879Z,62.18
2024-05-09T07:59:41.515Z,64.00
2024-05-09T08:01:43.260Z,63.61
2024-05-09T08:03:45.436Z,61.80
2024-05-09T08:05:47.264Z,57.97
2024-05-09T08:07:48.906Z,59.41
2024-05-09T08:09:50.474Z,57.50
2024-05-09T08:11:55.205Z,60.61
2024-05-09T08:13:56.750Z,59.57
2024-05-09T08:15:58.345Z,59.69
2024-05-09T08:18:00.183Z,59.05
2024-05-09T08:20:03.672Z,58.49
2024-05-09T08:22:07.366Z,54.55
2024-05-09T08:24:10.450Z,57.15
2024-05-09T08:26:12.364Z,57.57
2024-05-09T08:28:15.247Z,55.48
2024-05-09T08:30:24.635Z,54.60
2024-05-09T08:32:32.425Z,53.49
2024-05-09T08:34:34.207Z,52.47
2024-05-09T08:36:35.902Z,51.25
2024-05-09T08:38:37.479Z,53.87
2024-05-09T08:40:39.322Z,52.20
2024-05-09T08:42:49.509Z,50.73
2024-05-09T08:44:52.101Z,50.12
2024-05-09T08:46:53.846Z,47.18
2024-05-09T08:48:57.343Z,47.56
2024-05-09T08:50:59.528Z,50.13
2024-05-09T08:53:01.183Z,45.76
2024-05-09T08:55:03.846Z,48.46
2024-05-09T08:57:07.015Z,46.11
2024-05-09T08:59:13.540Z,45.27
2024-05-09T09:01:16.328Z,45.43
2024-05-09T09:03:19.912Z,47.06
2024-05-09T09:05:25.859Z,48.14
2024-05-09T09:07:29.922Z,45.68
2024-05-09T09:09:32.900Z,45.53
2024-05-09T09:11:34.652Z,46.39
2024-05-09T09:13:36.817Z,45.96
2024-05-09T09:15:48.385Z,43.19
2024-05-09T09:18:00.720Z,43.66
2024-05-09T09:20:03.057Z,43.62
2024-05-09T09:22:05.292Z,45.04
2024-05-09T09:24:10.000Z,42.95
2024-05-09T09:28:17.655Z,44.02
2024-05-09T09:30:31.518Z,44.69
2024-05-09T09:32:38.526Z,44.75
2024-05-09T09:34:41.579Z,39.97
2024-05-09T09:36:44.443Z,43.35
2024-05-09T09:38:47.430Z,42.10
2024-05-09T09:40:51.031Z,41.83
2024-05-09T09:42:57.763Z,41.64
2024-05-09T09:45:04.842Z,41.68
2024-05-09T09:47:08.596Z,43.00
2024-05-09T09:49:10.356Z,42.14
2024-05-09T09:51:13.820Z,42.46
2024-05-09T09:53:16.682Z,41.93
2024-05-09T09:55:18.788Z,39.32
2024-05-09T09:57:21.438Z,39.37
2024-05-09T09:59:23.184Z,40.27
2024-05-09T10:01:25.046Z,39.78
2024-05-09T10:03:27.273Z,40.66
2024-05-09T10:05:30.138Z,37.65
2024-05-09T10:07:33.438Z,40.20
2024-05-09T10:09:35.620Z,38.29
2024-05-09T10:11:42.006Z,39.67
2024-05-09T10:13:47.403Z,36.88
2024-05-09T10:15:53.760Z,36.49
2024-05-09T10:18:06.698Z,37.05
2024-05-09T10:20:14.906Z,38.27
2024-05-09T10:22:30.917Z,37.21
2024-05-09T10:24:53.203Z,35.01
2024-05-09T10:26:54.938Z,36.71
2024-05-09T10:28:58.700Z,36.84
2024-05-09T10:31:10.776Z,36.98
2024-05-09T10:33:12.544Z,36.52
2024-05-09T10:35:19.247Z,36.41
2024-05-09T10:37:22.092Z,33.78
2024-05-09T10:39:25.578Z,34.55
2024-05-09T10:41:27.191Z,34.62
2024-05-09T10:43:31.228Z,34.58
2024-05-09T10:45:35.038Z,35.01
2024-05-09T10:47:36.967Z,35.75
2024-05-09T10:49:39.342Z,36.29
2024-05-09T10:51:44.461Z,35.54
2024-05-09T10:53:47.818Z,36.05
2024-05-09T10:55:59.714Z,36.20
2024-05-09T10:58:01.323Z,36.92
2024-05-09T11:00:03.127Z,37.53
2024-05-09T11:02:07.996Z,37.67
2024-05-09T11:04:09.932Z,39.31
2024-05-09T11:06:11.937Z,39.23
2024-05-09T11:08:13.713Z,39.34
2024-05-09T11:10:21.003Z,39.33
2024-05-09T11:12:29.096Z,38.88
2024-05-09T11:14:30.714Z,38.14
2024-05-09T11:16:32.787Z,38.53
2024-05-09T11:18:38.093Z,39.13
2024-05-09T11:20:40.976Z,39.92
2024-05-09T11:22:42.748Z,39.94
2024-05-09T11:24:44.508Z,40.44
2024-05-09T11:26:46.136Z,40.77
2024-05-09T11:28:48.148Z,40.45
2024-05-09T11:30:50.870Z,40.83
2024-05-09T11:32:53.371Z,41.68
2024-05-09T11:34:55.013Z,41.11
2024-05-09T11:36:56.756Z,39.46
2024-05-09T11:38:58.349Z,40.41
2024-05-09T11:40:59.977Z,38.70
2024-05-09T11:43:01.781Z,37.95
2024-05-09T11:45:03.915Z,37.86
2024-05-09T11:47:05.918Z,37.54
2024-05-09T11:49:09.313Z,36.62
2024-05-09T11:51:11.123Z,37.10
2024-05-09T11:53:12.734Z,38.01
2024-05-09T11:55:14.703Z,37.75
2024-05-09T11:57:16.443Z,36.74
2024-05-09T11:59:18.044Z,38.13
2024-05-09T12:01:20.337Z,36.35
2024-05-09T12:03:22.891Z,35.62
2024-05-09T12:05:25.487Z,34.73
2024-05-09T12:07:27.172Z,35.66
2024-05-09T12:09:29.102Z,34.69
2024-05-09T12:11:30.902Z,35.82
2024-05-09T12:13:32.649Z,33.25
2024-05-09T12:15:38.306Z,33.57
2024-05-09T12:17:40.758Z,34.84
2024-05-09T12:19:42.803Z,35.72
2024-05-09T12:21:44.385Z,35.35
2024-05-09T12:23:46.397Z,35.91
2024-05-09T12:25:48.034Z,36.59
2024-05-09T12:27:49.714Z,37.02
2024-05-09T12:29:51.337Z,37.78
2024-05-09T12:31:53.029Z,38.35
2024-05-09T12:33:54.906Z,38.56
2024-05-09T12:35:56.642Z,39.33
2024-05-09T12:37:58.303Z,40.26
2024-05-09T12:39:59.900Z,39.86
2024-05-09T12:42:01.717Z,39.42
2024-05-09T12:44:03.289Z,39.39
2024-05-09T12:46:05.042Z,38.03
2024-05-09T12:48:11.754Z,38.62
2024-05-09T12:50:21.964Z,38.75
2024-05-09T12:52:26.917Z,38.95
2024-05-09T12:54:28.614Z,39.05
2024-05-09T12:56:30.213Z,39.03
2024-05-09T12:58:31.818Z,38.45
2024-05-09T13:00:34.455Z,37.94
2024-05-09T13:02:36.450Z,36.34
2024-05-09T13:04:38.388Z,36.65
2024-05-09T13:06:40.175Z,35.89
2024-05-09T13:08:41.895Z,35.51
2024-05-09T13:10:43.647Z,36.11
2024-05-09T13:12:45.289Z,35.77
2024-05-09T13:14:47.061Z,35.44
2024-05-09T13:16:48.748Z,34.16
2024-05-09T13:18:50.689Z,36.30
2024-05-09T13:20:52.484Z,33.36
2024-05-09T13:22:54.269Z,33.89
2024-05-09T13:24:55.856Z,34.57
2024-05-09T13:26:57.530Z,34.86
2024-05-09T13:28:59.067Z,34.82
2024-05-09T13:31:00.717Z,34.66
2024-05-09T13:33:02.495Z,35.27
2024-05-09T13:35:04.644Z,36.81
2024-05-09T13:37:06.420Z,37.39
2024-05-09T13:39:08.134Z,38.24
2024-05-09T13:41:11.520Z,38.57
2024-05-09T13:43:14.035Z,38.53
2024-05-09T13:45:15.677Z,39.09
2024-05-09T13:47:17.558Z,38.30
2024-05-09T13:49:19.349Z,38.37
2024-05-09T13:51:20.992Z,38.16
2024-05-09T13:53:22.613Z,38.27
2024-05-09T13:55:24.300Z,36.67
2024-05-09T13:57:26.633Z,36.29
2024-05-09T13:59:28.284Z,36.83
2024-05-09T14:01:33.368Z,37.33
2024-05-09T14:03:35.136Z,36.49
2024-05-09T14:05:36.959Z,36.96
2024-05-09T14:07:38.651Z,37.84
2024-05-09T14:09:40.233Z,38.12
2024-05-09T14:11:42.101Z,37.97
2024-05-09T14:13:43.850Z,37.09
2024-05-09T14:15:46.365Z,38.19
2024-05-09T14:17:48.343Z,37.85
2024-05-09T14:19:49.986Z,38.27
2024-05-09T14:21:51.556Z,37.16
2024-05-09T14:23:54.338Z,37.45
2024-05-09T14:25:56.458Z,36.94
2024-05-09T14:27:58.513Z,36.86
2024-05-09T14:30:00.205Z,38.02
2024-05-09T14:32:02.941Z,38.24
2024-05-09T14:34:04.737Z,39.15
2024-05-09T14:36:06.777Z,38.90
2024-05-09T14:38:09.838Z,38.81
2024-05-09T14:40:25.970Z,39.18
2024-05-09T14:42:33.104Z,38.78
2024-05-09T14:44:34.677Z,39.79
2024-05-09T14:46:36.323Z,39.02
2024-05-09T14:48:38.120Z,39.22
2024-05-09T14:50:40.900Z,39.07
2024-05-09T14:52:42.783Z,39.17
2024-05-09T14:54:44.439Z,39.55
2024-05-09T14:56:46.143Z,39.66
2024-05-09T14:58:47.824Z,40.09
2024-05-09T15:00:51.269Z,39.68
2024-05-09T15:02:54.866Z,40.61
2024-05-09T15:04:56.476Z,40.20
2024-05-09T15:06:59.812Z,41.37
2024-05-09T15:09:01.897Z,40.43
2024-05-09T15:11:03.702Z,39.79
2024-05-09T15:13:07.800Z,39.75
2024-05-09T15:15:11.034Z,40.05
2024-05-09T15:17:13.038Z,39.76
2024-05-09T15:19:14.846Z,40.18
2024-05-09T15:21:16.546Z,39.95
2024-05-09T15:23:18.244Z,38.92
2024-05-09T15:25:19.899Z,39.23
2024-05-09T15:27:21.898Z,39.64
2024-05-09T15:29:23.433Z,39.08
2024-05-09T15:31:25.167Z,39.08
2024-05-09T15:33:27.967Z,39.38
2024-05-09T15:35:29.605Z,38.53
2024-05-09T15:37:31.718Z,38.63
2024-05-09T15:39:33.399Z,38.85
2024-05-09T15:41:35.100Z,38.56
2024-05-09T15:43:36.690Z,38.32
2024-05-09T15:45:38.591Z,38.83
2024-05-09T15:47:40.343Z,39.06
2024-05-09T15:49:42.350Z,39.32
2024-05-09T15:51:44.093Z,38.30
2024-05-09T15:53:45.708Z,38.23
2024-05-09T15:55:47.243Z,38.92
2024-05-09T15:57:48.875Z,38.86
2024-05-09T15:59:50.949Z,39.10
2024-05-09T16:01:52.560Z,39.29
2024-05-09T16:03:54.614Z,39.46
2024-05-09T16:05:57.643Z,40.42
2024-05-09T16:07:59.573Z,39.82
2024-05-09T16:10:01.359Z,40.19
2024-05-09T16:12:03.090Z,40.08
2024-05-09T16:14:04.988Z,40.51
2024-05-09T16:16:06.813Z,41.46
2024-05-09T16:18:08.723Z,41.29
2024-05-09T16:20:14.998Z,41.66
2024-05-09T16:22:19.988Z,42.00
2024-05-09T16:24:21.672Z,42.30
2024-05-09T16:26:23.308Z,42.37
2024-05-09T16:28:26.936Z,42.29
2024-05-09T16:30:34.715Z,42.44
2024-05-09T16:32:40.792Z,42.73
2024-05-09T16:34:42.498Z,42.49
2024-05-09T16:36:44.476Z,43.08
2024-05-09T16:38:46.052Z,43.50
2024-05-09T16:40:47.977Z,43.39
2024-05-09T16:42:49.678Z,43.75
2024-05-09T16:44:51.284Z,43.83
2024-05-09T16:46:53.169Z,44.13
2024-05-09T16:48:55.131Z,44.77
2024-05-09T16:50:56.873Z,44.95
2024-05-09T16:52:58.864Z,44.69
2024-05-09T16:55:00.585Z,45.14
2024-05-09T16:57:02.735Z,44.38
2024-05-09T16:59:04.398Z,44.95
2024-05-09T17:01:06.021Z,44.76
2024-05-09T17:03:09.651Z,44.57
2024-05-09T17:05:11.790Z,44.43
2024-05-09T17:07:13.691Z,44.43
2024-05-09T17:09:18.019Z,44.54
2024-05-09T17:11:21.074Z,44.90
2024-05-09T17:13:23.012Z,44.38
2024-05-09T17:15:24.775Z,44.27
2024-05-09T17:17:26.673Z,44.45
2024-05-09T17:19:29.253Z,44.51
2024-05-09T17:21:30.832Z,44.54
2024-05-09T17:23:34.689Z,44.70
2024-05-09T17:25:36.533Z,45.01
2024-05-09T17:27:38.176Z,44.87
2024-05-09T17:29:39.932Z,45.21
2024-05-09T17:31:41.509Z,45.50
2024-05-09T17:33:43.303Z,45.63
2024-05-09T17:35:46.230Z,45.68
2024-05-09T17:37:47.894Z,45.69
2024-05-09T17:39:49.504Z,45.28
2024-05-09T17:41:51.160Z,46.01
2024-05-09T17:43:52.725Z,46.05
2024-05-09T17:45:56.244Z,46.52
2024-05-09T17:47:58.349Z,46.65
2024-05-09T17:50:00.394Z,46.43
2024-05-09T17:52:02.021Z,46.72
2024-05-09T17:54:03.733Z,46.32
2024-05-09T17:56:08.701Z,46.33
2024-05-09T17:58:12.683Z,47.55
2024-05-09T18:00:17.485Z,47.03
2024-05-09T18:02:23.110Z,47.05
2024-05-09T18:04:24.924Z,47.31
2024-05-09T18:06:26.667Z,47.53
2024-05-09T18:08:28.209Z,47.28
2024-05-09T18:10:35.860Z,47.35
2024-05-09T18:12:40.438Z,47.43
2024-05-09T18:14:42.089Z,47.22
2024-05-09T18:16:43.662Z,47.80
2024-05-09T18:18:45.550Z,47.58
2024-05-09T18:20:47.632Z,47.62
2024-05-09T18:22:49.187Z,48.01
2024-05-09T18:24:50.805Z,48.56
2024-05-09T18:26:52.432Z,48.39
2024-05-09T18:28:54.063Z,48.62
2024-05-09T18:30:55.779Z,48.58
2024-05-09T18:32:57.572Z,48.93
2024-05-09T18:34:59.333Z,49.41
2024-05-09T18:37:02.988Z,49.79
2024-05-09T18:39:06.695Z,50.69
2024-05-09T18:41:08.416Z,49.98
2024-05-09T18:43:10.170Z,50.17
2024-05-09T18:45:12.043Z,50.26
2024-05-09T18:47:15.995Z,50.20
2024-05-09T18:49:18.732Z,50.87
2024-05-09T18:51:21.069Z,50.95
2024-05-09T18:53:22.660Z,50.39
2024-05-09T18:55:24.198Z,50.83
2024-05-09T18:57:26.065Z,50.83
2024-05-09T18:59:27.568Z,50.76
2024-05-09T19:01:29.328Z,50.86
2024-05-09T19:03:31.246Z,52.40
2024-05-09T19:05:33.414Z,52.06
2024-05-09T19:07:35.214Z,52.04
2024-05-09T19:09:36.868Z,52.20
2024-05-09T19:11:40.175Z,52.04
2024-05-09T19:13:41.838Z,52.12
2024-05-09T19:15:44.156Z,51.98
2024-05-09T19:17:48.290Z,52.39
2024-05-09T19:19:52.307Z,52.20
2024-05-09T19:21:54.119Z,52.00
2024-05-09T19:23:55.867Z,53.20
2024-05-09T19:25:57.889Z,52.55
2024-05-09T19:27:59.935Z,52.43
2024-05-09T19:30:01.580Z,53.32
2024-05-09T19:32:03.371Z,52.86
2024-05-09T19:34:05.106Z,52.94
2024-05-09T19:36:07.133Z,54.35
2024-05-09T19:38:08.921Z,53.63
2024-05-09T19:40:18.120Z,53.08
2024-05-09T19:42:27.601Z,53.71
2024-05-09T19:44:29.206Z,55.14
2024-05-09T19:46:30.828Z,54.39
2024-05-09T19:48:32.729Z,54.66
2024-05-09T19:50:41.173Z,55.38
2024-05-09T19:52:45.602Z,55.08
2024-05-09T19:54:49.934Z,54.44
2024-05-09T19:56:51.640Z,54.17
2024-05-09T19:58:53.357Z,54.29
2024-05-09T20:00:55.162Z,55.83
2024-05-09T20:02:56.955Z,55.28
2024-05-09T20:04:58.745Z,56.84
2024-05-09T20:07:00.390Z,56.71
2024-05-09T20:09:02.081Z,56.30
2024-05-09T20:11:03.719Z,56.52
2024-05-09T20:13:07.201Z,57.28
2024-05-09T20:15:09.419Z,57.42
2024-05-09T20:17:11.035Z,58.52
2024-05-09T20:19:12.865Z,58.96
2024-05-09T20:21:14.564Z,59.53
2024-05-09T20:23:16.635Z,59.18
2024-05-09T20:25:18.282Z,60.54
2024-05-09T20:27:19.873Z,60.85
2024-05-09T20:29:21.407Z,59.99
2024-05-09T20:31:23.107Z,60.71
2024-05-09T20:33:24.784Z,60.83
2024-05-09T20:35:26.765Z,62.32
2024-05-09T20:37:28.427Z,61.79
2024-05-09T20:39:29.993Z,62.42
2024-05-09T20:41:33.606Z,63.17
2024-05-09T20:43:35.235Z,63.16
2024-05-09T20:45:37.012Z,63.32
2024-05-09T20:47:38.758Z,63.88
2024-05-09T20:49:40.538Z,63.85
2024-05-09T20:51:42.274Z,64.22
2024-05-09T20:53:43.886Z,65.16
2024-05-09T20:55:45.875Z,65.50
2024-05-09T20:57:47.542Z,64.71
2024-05-09T20:59:49.163Z,65.03
2024-05-09T21:01:50.752Z,65.44
2024-05-09T21:03:52.594Z,66.46
2024-05-09T21:05:54.316Z,66.52
2024-05-09T21:07:56.491Z,66.20
2024-05-09T21:09:58.038Z,65.49
2024-05-09T21:11:59.610Z,66.38
2024-05-09T21:14:01.219Z,67.51
2024-05-09T21:16:02.909Z,66.91
2024-05-09T21:18:05.234Z,66.27
2024-05-09T21:20:11.696Z,67.26
2024-05-09T21:22:18.806Z,67.79
2024-05-09T21:24:20.517Z,66.99
2024-05-09T21:26:23.886Z,68.09
2024-05-09T21:28:25.709Z,67.15
2024-05-09T21:30:36.897Z,68.32
2024-05-09T21:32:42.674Z,67.20
2024-05-09T21:34:44.377Z,67.59
2024-05-09T21:36:46.088Z,66.98
2024-05-09T21:38:47.754Z,67.58
2024-05-09T21:40:49.349Z,68.02
2024-05-09T21:42:50.953Z,67.41
2024-05-09T21:44:52.610Z,68.21
2024-05-09T21:46:54.374Z,67.79
2024-05-09T21:48:56.011Z,67.29
2024-05-09T21:50:57.733Z,68.53
2024-05-09T21:52:59.337Z,68.71
2024-05-09T21:55:01.013Z,67.65
2024-05-09T21:57:03.744Z,67.70
2024-05-09T21:59:05.440Z,67.31
2024-05-09T22:01:07.310Z,69.11
2024-05-09T22:03:10.703Z,68.02
2024-05-09T22:05:13.844Z,68.98
2024-05-09T22:07:15.815Z,67.74
2024-05-09T22:09:17.427Z,69.92
2024-05-09T22:11:19.042Z,68.42
2024-05-09T22:13:20.781Z,70.42
2024-05-09T22:15:22.361Z,68.49
2024-05-09T22:17:24.134Z,71.34
2024-05-09T22:19:25.944Z,70.09
2024-05-09T22:21:27.541Z,70.02
2024-05-09T22:23:29.144Z,68.31
2024-05-09T22:25:31.722Z,71.23
2024-05-09T22:27:34.043Z,70.42
2024-05-09T22:29:35.608Z,69.15
2024-05-09T22:31:37.193Z,68.99
2024-05-09T22:33:38.921Z,70.33
2024-05-09T22:35:42.097Z,70.66
2024-05-09T22:37:43.691Z,70.14
2024-05-09T22:39:45.259Z,73.53
2024-05-09T22:41:46.887Z,71.91
2024-05-09T22:43:48.434Z,74.37
2024-05-09T22:45:50.293Z,71.78
2024-05-09T22:47:52.215Z,73.35
2024-05-09T22:49:53.942Z,71.30
2024-05-09T22:51:55.554Z,73.48
2024-05-09T22:53:57.093Z,72.31
2024-05-09T22:55:58.650Z,74.16
2024-05-09T22:58:00.285Z,72.70
2024-05-09T23:00:01.938Z,74.45
2024-05-09T23:02:03.914Z,75.78
2024-05-09T23:04:05.836Z,75.33
2024-05-09T23:06:07.868Z,76.79
2024-05-09T23:08:10.443Z,77.02
2024-05-09T23:10:17.300Z,77.32
2024-05-09T23:12:26.237Z,76.07
2024-05-09T23:14:27.933Z,76.84
2024-05-09T23:16:29.680Z,76.55
2024-05-09T23:18:31.420Z,77.96
2024-05-09T23:20:37.983Z,76.74
2024-05-09T23:22:41.452Z,76.46
2024-05-09T23:24:43.151Z,76.16
2024-05-09T23:26:44.786Z,76.27
2024-05-09T23:28:46.878Z,75.94
2024-05-09T23:30:48.923Z,77.27
2024-05-09T23:32:50.983Z,78.13
2024-05-09T23:34:52.700Z,77.67
2024-05-09T23:36:54.479Z,78.04
2024-05-09T23:38:56.316Z,79.16
2024-05-09T23:40:57.997Z,78.21
2024-05-09T23:42:59.683Z,77.69
2024-05-09T23:45:01.318Z,78.32
2024-05-09T23:47:03.315Z,79.01
2024-05-09T23:49:05.791Z,79.28
2024-05-09T23:51:07.540Z,77.60
2024-05-09T23:53:10.170Z,77.39
2024-05-09T23:55:12.638Z,80.72
2024-05-09T23:57:14.332Z,80.42
2024-05-09T23:59:15.956Z,81.21
